createdAt,value
2018-02-19T00:00:53.694Z,12.57
2018-02-19T00:05:58.097Z,13.77
2018-02-19T00:11:08.206Z,16.23
2018-02-19T00:16:14.293Z,15.47
2018-02-19T00:21:19.994Z,16.20
2018-02-19T00:26:24.862Z,15.90
2018-02-19T00:31:34.706Z,17.57
2018-02-19T00:36:39.874Z,19.37
2018-02-19T00:41:45.265Z,20.17
2018-02-19T00:46:50.197Z,20.90
2018-02-19T00:51:58.553Z,20.23
2018-02-19T00:57:02.945Z,23.07
2018-02-19T01:02:12.688Z,21.10
2018-02-19T01:07:18.389Z,20.20
2018-02-19T01:12:27.645Z,18.47
2018-02-19T01:17:32.033Z,18.97
2018-02-19T01:22:37.648Z,18.43
2018-02-19T01:27:42.914Z,18.70
2018-02-19T01:32:51.397Z,16.87
2018-02-19T01:37:56.538Z,17.13
2018-02-19T01:43:00.866Z,14.83
2018-02-19T01:48:05.576Z,12.63
2018-02-19T01:53:09.653Z,12.53
2018-02-19T01:58:20.178Z,12.97
2018-02-19T02:03:24.053Z,12.20
2018-02-19T02:08:29.029Z,13.13
2018-02-19T02:13:33.342Z,13.73
2018-02-19T02:18:41.569Z,14.57
2018-02-19T02:23:45.965Z,16.20
2018-02-19T02:28:51.350Z,19.77
2018-02-19T02:33:55.798Z,20.27
2018-02-19T02:39:03.394Z,19.10
2018-02-19T02:44:07.833Z,18.03
2018-02-19T02:49:14.538Z,19.20
2018-02-19T02:54:19.958Z,17.27
2018-02-19T02:59:30.074Z,17.57
2018-02-19T03:04:35.390Z,18.43
2018-02-19T03:09:39.877Z,17.93
2018-02-19T03:14:44.574Z,18.77
2018-02-19T03:19:53.153Z,18.20
2018-02-19T03:24:57.936Z,21.87
2018-02-19T03:30:02.457Z,17.10
2018-02-19T03:35:07.325Z,16.07
2018-02-19T03:40:12.456Z,17.63
2018-02-19T03:45:17.393Z,17.20
2018-02-19T03:50:22.814Z,18.30
2018-02-19T03:55:27.958Z,15.37
2018-02-19T04:00:34.367Z,15.07
2018-02-19T04:05:38.785Z,16.17
2018-02-19T04:10:43.458Z,15.07
2018-02-19T04:15:47.567Z,13.10
2018-02-19T04:20:55.732Z,13.57
2018-02-19T04:26:00.432Z,13.37
2018-02-19T04:31:09.172Z,14.33
2018-02-19T04:36:14.397Z,13.53
2018-02-19T04:41:22.770Z,17.00
2018-02-19T04:46:43.137Z,17.77
2018-02-19T04:51:52.326Z,16.40
2018-02-19T04:56:57.513Z,13.53
2018-02-19T05:02:07.195Z,14.33
2018-02-19T05:07:11.634Z,12.87
2018-02-19T05:12:16.555Z,14.63
2018-02-19T05:17:21.557Z,11.83
2018-02-19T05:22:26.218Z,13.80
2018-02-19T05:27:30.449Z,14.53
2018-02-19T05:32:35.586Z,13.07
2018-02-19T05:37:45.614Z,13.30
2018-02-19T05:42:51.139Z,12.60
2018-02-19T05:48:08.829Z,14.73
2018-02-19T05:53:14.481Z,12.83
2018-02-19T05:58:20.334Z,14.17
2018-02-19T06:03:25.038Z,13.10
2018-02-19T06:08:33.977Z,14.73
2018-02-19T06:13:39.889Z,13.30
2018-02-19T06:18:47.212Z,12.10
2018-02-19T06:23:52.635Z,11.60
2018-02-19T06:28:58.178Z,9.70
2018-02-19T06:34:03.662Z,9.70
2018-02-19T06:39:12.325Z,14.77
2018-02-19T06:44:16.854Z,14.00
2018-02-19T06:49:21.891Z,14.33
2018-02-19T06:54:26.567Z,15.23
2018-02-19T06:59:33.076Z,19.53
2018-02-19T07:04:37.587Z,33.13
2018-02-19T07:09:45.593Z,23.37
2018-02-19T07:14:49.723Z,20.97
2018-02-19T07:19:57.677Z,14.00
2018-02-19T07:25:03.943Z,15.60
2018-02-19T07:30:11.556Z,10.70
2018-02-19T07:35:16.211Z,12.47
2018-02-19T07:40:24.758Z,15.70
2018-02-19T07:45:30.253Z,13.30
2018-02-19T07:50:36.575Z,12.30
2018-02-19T07:55:42.718Z,12.70
2018-02-19T08:00:49.257Z,12.37
2018-02-19T08:05:53.897Z,11.73
2018-02-19T08:11:05.064Z,15.17
2018-02-19T08:16:09.465Z,11.13
2018-02-19T08:21:20.418Z,12.30
2018-02-19T08:26:25.677Z,12.93
2018-02-19T08:31:36.153Z,14.90
2018-02-19T08:36:40.933Z,11.63
2018-02-19T08:41:53.626Z,11.90
2018-02-19T08:46:58.734Z,13.23
2018-02-19T08:52:03.565Z,11.97
2018-02-19T08:57:11.182Z,16.07
2018-02-19T09:02:16.786Z,14.33
2018-02-19T09:07:22.101Z,7.63
2018-02-19T09:12:27.218Z,11.83
2018-02-19T09:17:44.328Z,8.97
2018-02-19T09:22:49.249Z,6.63
2018-02-19T09:27:56.997Z,9.03
2018-02-19T09:33:01.694Z,7.27
2018-02-19T09:38:07.968Z,5.63
2018-02-19T09:43:12.500Z,10.67
2018-02-19T09:48:21.682Z,18.33
2018-02-19T09:53:27.074Z,10.17
2018-02-19T09:58:36.664Z,6.57
2018-02-19T10:03:42.273Z,7.07
2018-02-19T10:08:53.400Z,6.47
2018-02-19T10:13:57.933Z,6.90
2018-02-19T10:19:10.031Z,8.87
2018-02-19T10:24:15.008Z,12.17
2018-02-19T10:29:23.070Z,16.60
2018-02-19T10:34:28.116Z,9.67
2018-02-19T10:39:33.978Z,9.37
2018-02-19T10:44:38.549Z,8.47
2018-02-19T10:49:44.089Z,7.33
2018-02-19T10:54:49.150Z,10.30
2018-02-19T11:00:00.530Z,12.97
2018-02-19T11:05:05.080Z,14.27
2018-02-19T11:10:14.783Z,14.30
2018-02-19T11:15:19.541Z,16.27
2018-02-19T11:20:29.559Z,14.73
2018-02-19T11:25:34.448Z,14.70
2018-02-19T11:30:40.366Z,12.73
2018-02-19T11:35:45.321Z,20.37
2018-02-19T11:40:49.953Z,14.17
2018-02-19T11:45:54.506Z,15.30
2018-02-19T11:51:06.167Z,15.50
2018-02-19T11:56:10.555Z,11.50
2018-02-19T12:01:19.886Z,14.97
2018-02-19T12:06:24.932Z,14.10
2018-02-19T12:11:29.015Z,11.03
2018-02-19T12:16:36.999Z,11.33
2018-02-19T12:21:43.066Z,11.10
2018-02-19T12:26:54.482Z,11.73
2018-02-19T12:31:59.850Z,8.73
2018-02-19T12:37:06.422Z,11.50
2018-02-19T12:42:11.309Z,9.00
2018-02-19T12:47:26.363Z,10.77
2018-02-19T12:52:30.825Z,14.30
2018-02-19T12:57:37.782Z,12.97
2018-02-19T13:02:42.329Z,25.03
2018-02-19T13:07:50.888Z,18.60
2018-02-19T13:12:54.941Z,16.73
2018-02-19T13:17:59.932Z,19.77
2018-02-19T13:23:05.013Z,20.40
2018-02-19T13:28:16.565Z,11.87
2018-02-19T13:33:21.244Z,15.07
2018-02-19T13:38:25.586Z,15.07
2018-02-19T13:43:48.162Z,14.30
2018-02-19T13:49:00.218Z,16.47
2018-02-19T13:54:05.593Z,17.80
2018-02-19T13:59:13.838Z,12.93
2018-02-19T14:04:18.502Z,13.10
2018-02-19T14:09:28.269Z,19.53
2018-02-19T14:14:32.873Z,18.07
2018-02-19T14:19:37.197Z,25.13
2018-02-19T14:24:41.997Z,21.20
2018-02-19T14:29:47.373Z,17.87
2018-02-19T14:34:51.481Z,23.00
2018-02-19T14:39:59.754Z,21.40
2018-02-19T14:45:05.130Z,19.63
2018-02-19T14:50:11.773Z,21.10
2018-02-19T14:55:16.998Z,21.43
2018-02-19T15:00:28.510Z,29.80
2018-02-19T15:05:33.424Z,24.80
2018-02-19T15:10:49.850Z,26.00
2018-02-19T15:15:55.091Z,25.40
2018-02-19T15:20:59.885Z,26.10
2018-02-19T15:26:18.510Z,17.20
2018-02-19T15:31:22.741Z,25.17
2018-02-19T15:36:29.966Z,23.70
2018-02-19T15:41:34.913Z,29.20
2018-02-19T15:46:40.774Z,36.10
2018-02-19T15:51:45.926Z,30.90
2018-02-19T15:56:54.640Z,25.93
2018-02-19T16:01:59.565Z,25.23
2018-02-19T16:07:05.838Z,24.50
2018-02-19T16:12:11.005Z,26.30
2018-02-19T16:17:15.899Z,27.57
2018-02-19T16:22:21.466Z,25.53
2018-02-19T16:27:26.746Z,24.70
2018-02-19T16:32:33.097Z,19.97
2018-02-19T16:37:41.830Z,24.50
2018-02-19T16:42:45.950Z,23.90
2018-02-19T16:47:50.571Z,23.50
2018-02-19T16:52:54.505Z,17.37
2018-02-19T16:57:59.862Z,17.63
2018-02-19T17:03:05.030Z,20.17
2018-02-19T17:08:13.326Z,15.43
2018-02-19T17:13:18.130Z,19.77
2018-02-19T17:18:27.642Z,19.00
2018-02-19T17:23:33.482Z,20.73
2018-02-19T17:28:41.049Z,15.53
2018-02-19T17:33:45.931Z,17.13
2018-02-19T17:38:54.125Z,13.90
2018-02-19T17:43:59.686Z,18.73
2018-02-19T17:49:10.313Z,18.03
2018-02-19T17:54:14.968Z,18.87
2018-02-19T17:59:22.762Z,24.43
2018-02-19T18:04:27.737Z,24.33
2018-02-19T18:09:37.331Z,23.03
2018-02-19T18:14:42.019Z,24.07
2018-02-19T18:19:46.657Z,22.97
2018-02-19T18:24:51.518Z,26.70
2018-02-19T18:29:58.291Z,27.10
2018-02-19T18:35:01.617Z,28.03
2018-02-19T18:40:11.470Z,25.73
2018-02-19T18:45:16.090Z,25.17
2018-02-19T18:50:26.602Z,30.23
2018-02-19T18:55:31.450Z,24.57
2018-02-19T19:00:37.413Z,23.73
2018-02-19T19:05:45.433Z,21.10
2018-02-19T19:10:51.893Z,25.23
2018-02-19T19:15:59.467Z,27.97
2018-02-19T19:21:04.926Z,25.47
2018-02-19T19:26:09.671Z,22.33
2018-02-19T19:31:13.652Z,26.80
2018-02-19T19:36:20.352Z,24.70
2018-02-19T19:41:24.710Z,26.10
2018-02-19T19:46:34.279Z,28.67
2018-02-19T19:51:39.826Z,22.20
2018-02-19T19:56:45.836Z,24.20
2018-02-19T20:01:51.067Z,24.33
2018-02-19T20:07:01.801Z,29.07
2018-02-19T20:12:06.704Z,30.20
2018-02-19T20:17:12.109Z,27.30
2018-02-19T20:22:16.958Z,30.17
2018-02-19T20:27:32.337Z,26.43
2018-02-19T20:32:36.578Z,25.73
2018-02-19T20:37:44.831Z,26.07
2018-02-19T20:42:50.497Z,20.87
2018-02-19T20:47:56.821Z,27.13
2018-02-19T20:53:01.884Z,25.20
2018-02-19T20:58:08.485Z,25.57
2018-02-19T21:03:14.123Z,30.23
2018-02-19T21:08:25.426Z,30.60
2018-02-19T21:13:30.745Z,24.97
2018-02-19T21:18:42.154Z,22.53
2018-02-19T21:23:47.802Z,19.90
2018-02-19T21:29:06.771Z,24.17
2018-02-19T21:34:11.429Z,23.17
2018-02-19T21:39:20.541Z,21.40
2018-02-19T21:44:26.585Z,23.53
2018-02-19T21:49:36.675Z,20.20
2018-02-19T21:54:42.269Z,21.40
2018-02-19T21:59:52.330Z,21.47
2018-02-19T22:04:57.202Z,21.00
2018-02-19T22:10:01.329Z,20.40
2018-02-19T22:15:06.492Z,21.13
2018-02-19T22:20:11.362Z,18.97
2018-02-19T22:25:20.214Z,23.10
2018-02-19T22:30:25.017Z,18.90
2018-02-19T22:35:29.661Z,20.80
2018-02-19T22:40:35.063Z,22.67
2018-02-19T22:45:46.471Z,19.63
2018-02-19T22:50:51.269Z,20.07
2018-02-19T22:55:57.281Z,20.97
2018-02-19T23:01:02.645Z,20.80
2018-02-19T23:06:12.866Z,21.60
2018-02-19T23:11:17.528Z,19.40
2018-02-19T23:16:26.925Z,17.73
2018-02-19T23:26:44.965Z,13.73
2018-02-19T23:31:49.384Z,18.40
2018-02-19T23:37:05.803Z,18.73
2018-02-19T23:42:11.201Z,12.20
2018-02-19T23:47:16.932Z,17.87
2018-02-19T23:52:21.038Z,16.83
2018-02-19T23:57:31.294Z,17.13
